sensor_id;sensor_type;location;lat;lon;timestamp;P1;durP1;ratioP1;P2;durP2;ratioP2
15261;SDS011;7733;51.554;13.590;2023-04-15T00:01:18;3.20;;;3.10;;
15261;SDS011;7733;51.554;13.590;2023-04-15T00:03:44;3.57;;;3.37;;
15261;SDS011;7733;51.554;13.590;2023-04-15T00:06:11;3.43;;;3.30;;
15261;SDS011;7733;51.554;13.590;2023-04-15T00:08:38;3.87;;;3.60;;
15261;SDS011;7733;51.554;13.590;2023-04-15T00:11:04;3.77;;;3.57;;
15261;SDS011;7733;51.554;13.590;2023-04-15T00:13:32;4.27;;;3.87;;
15261;SDS011;7733;51.554;13.590;2023-04-15T00:15:58;4.10;;;3.90;;
15261;SDS011;7733;51.554;13.590;2023-04-15T00:18:25;4.30;;;4.10;;
15261;SDS011;7733;51.554;13.590;2023-04-15T00:20:51;4.20;;;3.90;;
15261;SDS011;7733;51.554;13.590;2023-04-15T00:23:17;4.57;;;4.37;;
15261;SDS011;7733;51.554;13.590;2023-04-15T00:25:43;4.30;;;4.10;;
15261;SDS011;7733;51.554;13.590;2023-04-15T00:28:09;4.93;;;4.70;;
15261;SDS011;7733;51.554;13.590;2023-04-15T00:30:35;4.37;;;4.17;;
15261;SDS011;7733;51.554;13.590;2023-04-15T00:33:01;4.60;;;4.30;;
15261;SDS011;7733;51.554;13.590;2023-04-15T00:35:27;4.87;;;4.57;;
15261;SDS011;7733;51.554;13.590;2023-04-15T00:37:56;4.50;;;4.30;;
15261;SDS011;7733;51.554;13.590;2023-04-15T00:40:23;4.53;;;4.33;;
15261;SDS011;7733;51.554;13.590;2023-04-15T00:42:49;4.93;;;4.63;;
15261;SDS011;7733;51.554;13.590;2023-04-15T00:45:15;5.07;;;4.77;;
15261;SDS011;7733;51.554;13.590;2023-04-15T00:47:41;4.97;;;4.67;;
15261;SDS011;7733;51.554;13.590;2023-04-15T00:50:09;5.07;;;4.77;;
15261;SDS011;7733;51.554;13.590;2023-04-15T00:52:36;5.00;;;4.70;;
15261;SDS011;7733;51.554;13.590;2023-04-15T00:55:03;5.00;;;4.70;;
15261;SDS011;7733;51.554;13.590;2023-04-15T00:57:30;4.87;;;4.67;;
15261;SDS011;7733;51.554;13.590;2023-04-15T00:59:57;5.03;;;4.83;;
15261;SDS011;7733;51.554;13.590;2023-04-15T01:02:23;4.97;;;4.73;;
15261;SDS011;7733;51.554;13.590;2023-04-15T01:04:49;5.27;;;4.97;;
15261;SDS011;7733;51.554;13.590;2023-04-15T01:07:15;5.23;;;5.03;;
15261;SDS011;7733;51.554;13.590;2023-04-15T01:09:41;5.33;;;5.03;;
15261;SDS011;7733;51.554;13.590;2023-04-15T01:12:08;5.43;;;5.13;;
15261;SDS011;7733;51.554;13.590;2023-04-15T01:14:42;5.90;;;5.50;;
15261;SDS011;7733;51.554;13.590;2023-04-15T01:17:08;5.57;;;5.27;;
15261;SDS011;7733;51.554;13.590;2023-04-15T01:19:35;5.67;;;5.37;;
15261;SDS011;7733;51.554;13.590;2023-04-15T01:22:01;5.83;;;5.53;;
15261;SDS011;7733;51.554;13.590;2023-04-15T01:24:27;5.80;;;5.40;;
15261;SDS011;7733;51.554;13.590;2023-04-15T01:26:56;6.20;;;5.80;;
15261;SDS011;7733;51.554;13.590;2023-04-15T01:29:22;6.00;;;5.60;;
15261;SDS011;7733;51.554;13.590;2023-04-15T01:31:51;6.57;;;6.17;;
15261;SDS011;7733;51.554;13.590;2023-04-15T01:34:19;6.63;;;6.23;;
15261;SDS011;7733;51.554;13.590;2023-04-15T01:36:46;6.50;;;6.10;;
15261;SDS011;7733;51.554;13.590;2023-04-15T01:39:12;6.80;;;6.30;;
15261;SDS011;7733;51.554;13.590;2023-04-15T01:41:39;7.37;;;6.87;;
15261;SDS011;7733;51.554;13.590;2023-04-15T01:44:06;7.10;;;6.70;;
15261;SDS011;7733;51.554;13.590;2023-04-15T01:46:32;7.27;;;6.67;;
15261;SDS011;7733;51.554;13.590;2023-04-15T01:48:58;7.37;;;6.87;;
15261;SDS011;7733;51.554;13.590;2023-04-15T01:51:24;7.43;;;6.93;;
15261;SDS011;7733;51.554;13.590;2023-04-15T01:53:51;8.20;;;7.60;;
15261;SDS011;7733;51.554;13.590;2023-04-15T01:56:17;7.83;;;7.30;;
15261;SDS011;7733;51.554;13.590;2023-04-15T01:58:43;8.73;;;8.07;;
15261;SDS011;7733;51.554;13.590;2023-04-15T02:01:08;8.63;;;8.03;;
15261;SDS011;7733;51.554;13.590;2023-04-15T02:03:35;9.07;;;8.27;;
15261;SDS011;7733;51.554;13.590;2023-04-15T02:06:01;9.30;;;8.60;;
15261;SDS011;7733;51.554;13.590;2023-04-15T02:08:28;9.00;;;8.30;;
15261;SDS011;7733;51.554;13.590;2023-04-15T02:10:54;9.47;;;8.70;;
15261;SDS011;7733;51.554;13.590;2023-04-15T02:13:20;9.90;;;9.13;;
15261;SDS011;7733;51.554;13.590;2023-04-15T02:15:46;10.53;;;9.73;;
15261;SDS011;7733;51.554;13.590;2023-04-15T02:18:14;10.47;;;9.60;;
15261;SDS011;7733;51.554;13.590;2023-04-15T02:20:41;11.13;;;10.13;;
15261;SDS011;7733;51.554;13.590;2023-04-15T02:23:07;10.87;;;9.97;;
15261;SDS011;7733;51.554;13.590;2023-04-15T02:25:33;10.97;;;9.97;;
15261;SDS011;7733;51.554;13.590;2023-04-15T02:27:59;12.00;;;10.90;;
15261;SDS011;7733;51.554;13.590;2023-04-15T02:30:25;11.40;;;10.47;;
15261;SDS011;7733;51.554;13.590;2023-04-15T02:32:51;12.10;;;11.10;;
15261;SDS011;7733;51.554;13.590;2023-04-15T02:35:16;11.40;;;10.50;;
15261;SDS011;7733;51.554;13.590;2023-04-15T02:37:45;12.27;;;11.27;;
15261;SDS011;7733;51.554;13.590;2023-04-15T02:40:11;12.97;;;11.83;;
15261;SDS011;7733;51.554;13.590;2023-04-15T02:42:40;12.53;;;11.33;;
15261;SDS011;7733;51.554;13.590;2023-04-15T02:45:08;13.27;;;12.07;;
15261;SDS011;7733;51.554;13.590;2023-04-15T02:47:36;13.27;;;12.17;;
15261;SDS011;7733;51.554;13.590;2023-04-15T02:50:08;12.97;;;11.77;;
15261;SDS011;7733;51.554;13.590;2023-04-15T02:52:38;13.37;;;12.10;;
15261;SDS011;7733;51.554;13.590;2023-04-15T02:55:05;13.50;;;12.30;;
15261;SDS011;7733;51.554;13.590;2023-04-15T02:57:32;14.83;;;13.40;;
15261;SDS011;7733;51.554;13.590;2023-04-15T02:59:58;14.03;;;12.73;;
15261;SDS011;7733;51.554;13.590;2023-04-15T03:02:24;15.00;;;13.60;;
15261;SDS011;7733;51.554;13.590;2023-04-15T03:04:50;16.30;;;14.80;;
15261;SDS011;7733;51.554;13.590;2023-04-15T03:07:16;14.63;;;13.33;;
15261;SDS011;7733;51.554;13.590;2023-04-15T03:09:44;15.03;;;13.63;;
15261;SDS011;7733;51.554;13.590;2023-04-15T03:12:10;16.77;;;15.10;;
15261;SDS011;7733;51.554;13.590;2023-04-15T03:14:35;16.07;;;14.53;;
15261;SDS011;7733;51.554;13.590;2023-04-15T03:17:01;17.63;;;15.90;;
15261;SDS011;7733;51.554;13.590;2023-04-15T03:19:27;19.10;;;17.13;;
15261;SDS011;7733;51.554;13.590;2023-04-15T03:21:52;18.90;;;17.00;;
15261;SDS011;7733;51.554;13.590;2023-04-15T03:24:19;19.27;;;17.27;;
15261;SDS011;7733;51.554;13.590;2023-04-15T03:26:45;19.23;;;17.27;;
15261;SDS011;7733;51.554;13.590;2023-04-15T03:29:10;20.03;;;17.93;;
15261;SDS011;7733;51.554;13.590;2023-04-15T03:31:36;21.47;;;19.20;;
15261;SDS011;7733;51.554;13.590;2023-04-15T03:34:02;20.47;;;18.40;;
15261;SDS011;7733;51.554;13.590;2023-04-15T03:36:28;21.93;;;19.63;;
15261;SDS011;7733;51.554;13.590;2023-04-15T03:38:57;22.37;;;20.07;;
15261;SDS011;7733;51.554;13.590;2023-04-15T03:41:23;21.87;;;19.53;;
15261;SDS011;7733;51.554;13.590;2023-04-15T03:43:49;23.77;;;21.17;;
15261;SDS011;7733;51.554;13.590;2023-04-15T03:46:16;25.97;;;21.97;;
15261;SDS011;7733;51.554;13.590;2023-04-15T03:48:42;24.80;;;22.17;;
15261;SDS011;7733;51.554;13.590;2023-04-15T03:51:08;26.83;;;22.73;;
15261;SDS011;7733;51.554;13.590;2023-04-15T03:53:34;29.27;;;24.07;;
15261;SDS011;7733;51.554;13.590;2023-04-15T03:55:59;27.73;;;23.53;;
15261;SDS011;7733;51.554;13.590;2023-04-15T03:58:25;27.30;;;22.93;;
15261;SDS011;7733;51.554;13.590;2023-04-15T04:00:51;28.47;;;24.50;;
15261;SDS011;7733;51.554;13.590;2023-04-15T04:03:17;28.27;;;24.90;;
15261;SDS011;7733;51.554;13.590;2023-04-15T04:05:42;31.47;;;25.23;;
15261;SDS011;7733;51.554;13.590;2023-04-15T04:08:08;30.00;;;26.13;;
15261;SDS011;7733;51.554;13.590;2023-04-15T04:10:35;27.60;;;24.67;;
15261;SDS011;7733;51.554;13.590;2023-04-15T04:13:00;29.93;;;25.40;;
15261;SDS011;7733;51.554;13.590;2023-04-15T04:15:26;27.33;;;24.43;;
15261;SDS011;7733;51.554;13.590;2023-04-15T04:17:52;26.70;;;24.00;;
15261;SDS011;7733;51.554;13.590;2023-04-15T04:20:17;28.47;;;25.47;;
15261;SDS011;7733;51.554;13.590;2023-04-15T04:22:43;31.37;;;27.93;;
15261;SDS011;7733;51.554;13.590;2023-04-15T04:25:09;30.70;;;27.43;;
15261;SDS011;7733;51.554;13.590;2023-04-15T04:27:35;30.33;;;26.90;;
15261;SDS011;7733;51.554;13.590;2023-04-15T04:30:01;30.80;;;27.67;;
15261;SDS011;7733;51.554;13.590;2023-04-15T04:32:27;30.20;;;27.20;;
15261;SDS011;7733;51.554;13.590;2023-04-15T04:34:53;30.80;;;27.57;;
15261;SDS011;7733;51.554;13.590;2023-04-15T04:37:19;32.87;;;29.37;;
15261;SDS011;7733;51.554;13.590;2023-04-15T04:39:45;28.63;;;25.70;;
15261;SDS011;7733;51.554;13.590;2023-04-15T04:42:11;30.63;;;27.63;;
15261;SDS011;7733;51.554;13.590;2023-04-15T04:44:36;31.00;;;28.00;;
15261;SDS011;7733;51.554;13.590;2023-04-15T04:47:03;29.63;;;26.63;;
15261;SDS011;7733;51.554;13.590;2023-04-15T04:49:28;29.97;;;26.97;;
15261;SDS011;7733;51.554;13.590;2023-04-15T04:51:54;30.23;;;27.23;;
15261;SDS011;7733;51.554;13.590;2023-04-15T04:54:20;30.67;;;27.33;;
15261;SDS011;7733;51.554;13.590;2023-04-15T04:56:46;30.60;;;27.57;;
15261;SDS011;7733;51.554;13.590;2023-04-15T04:59:12;31.73;;;28.33;;
15261;SDS011;7733;51.554;13.590;2023-04-15T05:01:38;30.50;;;27.50;;
15261;SDS011;7733;51.554;13.590;2023-04-15T05:04:03;32.67;;;29.17;;
15261;SDS011;7733;51.554;13.590;2023-04-15T05:06:30;28.47;;;25.63;;
15261;SDS011;7733;51.554;13.590;2023-04-15T05:08:56;31.33;;;28.03;;
15261;SDS011;7733;51.554;13.590;2023-04-15T05:11:22;30.87;;;27.67;;
15261;SDS011;7733;51.554;13.590;2023-04-15T05:13:48;30.50;;;27.40;;
15261;SDS011;7733;51.554;13.590;2023-04-15T05:16:13;30.87;;;27.67;;
15261;SDS011;7733;51.554;13.590;2023-04-15T05:18:39;34.00;;;29.60;;
15261;SDS011;7733;51.554;13.590;2023-04-15T05:21:05;30.87;;;27.63;;
15261;SDS011;7733;51.554;13.590;2023-04-15T05:23:31;31.20;;;27.93;;
15261;SDS011;7733;51.554;13.590;2023-04-15T05:25:57;32.20;;;29.00;;
15261;SDS011;7733;51.554;13.590;2023-04-15T05:28:23;30.57;;;27.47;;
15261;SDS011;7733;51.554;13.590;2023-04-15T05:30:49;30.73;;;27.57;;
15261;SDS011;7733;51.554;13.590;2023-04-15T05:33:15;30.43;;;27.33;;
15261;SDS011;7733;51.554;13.590;2023-04-15T05:35:41;29.47;;;26.27;;
15261;SDS011;7733;51.554;13.590;2023-04-15T05:38:07;29.73;;;26.80;;
15261;SDS011;7733;51.554;13.590;2023-04-15T05:40:32;29.17;;;26.17;;
15261;SDS011;7733;51.554;13.590;2023-04-15T05:42:58;31.17;;;27.87;;
15261;SDS011;7733;51.554;13.590;2023-04-15T05:45:24;29.53;;;26.50;;
15261;SDS011;7733;51.554;13.590;2023-04-15T05:47:50;29.17;;;26.33;;
15261;SDS011;7733;51.554;13.590;2023-04-15T05:50:17;29.53;;;26.70;;
15261;SDS011;7733;51.554;13.590;2023-04-15T05:52:45;28.80;;;26.00;;
15261;SDS011;7733;51.554;13.590;2023-04-15T05:55:11;30.03;;;27.03;;
15261;SDS011;7733;51.554;13.590;2023-04-15T05:57:37;31.00;;;27.83;;
15261;SDS011;7733;51.554;13.590;2023-04-15T06:00:03;27.93;;;25.07;;
15261;SDS011;7733;51.554;13.590;2023-04-15T06:02:29;28.53;;;25.83;;
15261;SDS011;7733;51.554;13.590;2023-04-15T06:04:55;29.03;;;26.13;;
15261;SDS011;7733;51.554;13.590;2023-04-15T06:07:22;28.83;;;26.10;;
15261;SDS011;7733;51.554;13.590;2023-04-15T06:09:48;30.67;;;27.43;;
15261;SDS011;7733;51.554;13.590;2023-04-15T06:12:14;28.27;;;25.47;;
15261;SDS011;7733;51.554;13.590;2023-04-15T06:14:41;27.67;;;25.00;;
15261;SDS011;7733;51.554;13.590;2023-04-15T06:17:07;29.67;;;26.73;;
15261;SDS011;7733;51.554;13.590;2023-04-15T06:19:33;29.83;;;26.93;;
15261;SDS011;7733;51.554;13.590;2023-04-15T06:22:00;30.20;;;27.23;;
15261;SDS011;7733;51.554;13.590;2023-04-15T06:24:27;29.57;;;26.50;;
15261;SDS011;7733;51.554;13.590;2023-04-15T06:26:53;29.90;;;26.80;;
15261;SDS011;7733;51.554;13.590;2023-04-15T06:29:18;28.63;;;25.83;;
15261;SDS011;7733;51.554;13.590;2023-04-15T06:31:46;30.10;;;27.10;;
15261;SDS011;7733;51.554;13.590;2023-04-15T06:34:13;30.77;;;27.47;;
15261;SDS011;7733;51.554;13.590;2023-04-15T06:36:38;29.53;;;26.63;;
15261;SDS011;7733;51.554;13.590;2023-04-15T06:39:04;28.67;;;25.90;;
15261;SDS011;7733;51.554;13.590;2023-04-15T06:41:30;30.00;;;27.10;;
15261;SDS011;7733;51.554;13.590;2023-04-15T06:43:56;30.17;;;27.47;;
15261;SDS011;7733;51.554;13.590;2023-04-15T06:46:22;28.33;;;25.73;;
15261;SDS011;7733;51.554;13.590;2023-04-15T06:48:47;30.80;;;27.80;;
15261;SDS011;7733;51.554;13.590;2023-04-15T06:51:13;29.43;;;26.77;;
15261;SDS011;7733;51.554;13.590;2023-04-15T06:53:39;29.90;;;27.20;;
15261;SDS011;7733;51.554;13.590;2023-04-15T06:56:09;28.80;;;26.10;;
15261;SDS011;7733;51.554;13.590;2023-04-15T06:58:35;31.57;;;28.53;;
15261;SDS011;7733;51.554;13.590;2023-04-15T07:01:01;29.20;;;26.33;;
15261;SDS011;7733;51.554;13.590;2023-04-15T07:03:27;29.40;;;26.53;;
15261;SDS011;7733;51.554;13.590;2023-04-15T07:05:53;29.23;;;26.40;;
15261;SDS011;7733;51.554;13.590;2023-04-15T07:08:19;29.40;;;26.53;;
15261;SDS011;7733;51.554;13.590;2023-04-15T07:10:45;28.90;;;26.20;;
15261;SDS011;7733;51.554;13.590;2023-04-15T07:13:11;27.10;;;24.60;;
15261;SDS011;7733;51.554;13.590;2023-04-15T07:15:37;28.77;;;25.87;;
15261;SDS011;7733;51.554;13.590;2023-04-15T07:18:03;28.03;;;25.33;;
15261;SDS011;7733;51.554;13.590;2023-04-15T07:20:29;27.07;;;24.67;;
15261;SDS011;7733;51.554;13.590;2023-04-15T07:22:55;26.13;;;23.83;;
15261;SDS011;7733;51.554;13.590;2023-04-15T07:25:20;26.03;;;23.83;;
15261;SDS011;7733;51.554;13.590;2023-04-15T07:27:46;27.27;;;24.90;;
15261;SDS011;7733;51.554;13.590;2023-04-15T07:30:12;29.03;;;26.37;;
15261;SDS011;7733;51.554;13.590;2023-04-15T07:32:38;27.87;;;25.37;;
15261;SDS011;7733;51.554;13.590;2023-04-15T07:35:05;25.50;;;23.30;;
15261;SDS011;7733;51.554;13.590;2023-04-15T07:37:31;24.50;;;22.40;;
15261;SDS011;7733;51.554;13.590;2023-04-15T07:39:57;25.20;;;23.10;;
15261;SDS011;7733;51.554;13.590;2023-04-15T07:42:23;24.73;;;22.63;;
15261;SDS011;7733;51.554;13.590;2023-04-15T07:44:49;25.30;;;22.93;;
15261;SDS011;7733;51.554;13.590;2023-04-15T07:47:15;25.83;;;23.67;;
15261;SDS011;7733;51.554;13.590;2023-04-15T07:49:41;26.73;;;24.43;;
15261;SDS011;7733;51.554;13.590;2023-04-15T07:52:08;25.17;;;22.63;;
15261;SDS011;7733;51.554;13.590;2023-04-15T07:54:34;25.03;;;22.93;;
15261;SDS011;7733;51.554;13.590;2023-04-15T07:56:59;23.23;;;21.17;;
15261;SDS011;7733;51.554;13.590;2023-04-15T07:59:25;24.67;;;22.57;;
15261;SDS011;7733;51.554;13.590;2023-04-15T08:01:54;25.80;;;23.70;;
15261;SDS011;7733;51.554;13.590;2023-04-15T08:04:19;22.03;;;20.13;;
15261;SDS011;7733;51.554;13.590;2023-04-15T08:06:45;21.77;;;19.97;;
15261;SDS011;7733;51.554;13.590;2023-04-15T08:09:13;20.40;;;18.70;;
15261;SDS011;7733;51.554;13.590;2023-04-15T08:11:39;19.03;;;17.50;;
15261;SDS011;7733;51.554;13.590;2023-04-15T08:14:05;18.70;;;17.20;;
15261;SDS011;7733;51.554;13.590;2023-04-15T08:16:31;19.83;;;18.17;;
15261;SDS011;7733;51.554;13.590;2023-04-15T08:18:57;18.67;;;17.17;;
15261;SDS011;7733;51.554;13.590;2023-04-15T08:21:23;17.07;;;15.70;;
15261;SDS011;7733;51.554;13.590;2023-04-15T08:23:50;17.23;;;15.97;;
15261;SDS011;7733;51.554;13.590;2023-04-15T08:26:19;17.17;;;15.83;;
15261;SDS011;7733;51.554;13.590;2023-04-15T08:28:45;17.17;;;15.87;;
15261;SDS011;7733;51.554;13.590;2023-04-15T08:31:15;15.70;;;14.50;;
15261;SDS011;7733;51.554;13.590;2023-04-15T08:33:42;16.27;;;15.07;;
15261;SDS011;7733;51.554;13.590;2023-04-15T08:36:08;15.63;;;14.37;;
15261;SDS011;7733;51.554;13.590;2023-04-15T08:38:34;14.53;;;13.50;;
15261;SDS011;7733;51.554;13.590;2023-04-15T08:41:06;15.60;;;14.43;;
15261;SDS011;7733;51.554;13.590;2023-04-15T08:43:39;15.00;;;13.90;;
15261;SDS011;7733;51.554;13.590;2023-04-15T08:46:16;15.37;;;14.27;;
15261;SDS011;7733;51.554;13.590;2023-04-15T08:48:43;15.47;;;14.30;;
15261;SDS011;7733;51.554;13.590;2023-04-15T08:51:13;15.50;;;14.30;;
15261;SDS011;7733;51.554;13.590;2023-04-15T08:53:40;14.93;;;13.80;;
15261;SDS011;7733;51.554;13.590;2023-04-15T08:56:08;13.27;;;12.27;;
15261;SDS011;7733;51.554;13.590;2023-04-15T08:58:36;14.13;;;13.07;;
15261;SDS011;7733;51.554;13.590;2023-04-15T09:01:02;14.20;;;13.20;;
15261;SDS011;7733;51.554;13.590;2023-04-15T09:03:28;14.27;;;13.20;;
15261;SDS011;7733;51.554;13.590;2023-04-15T09:05:56;13.07;;;12.13;;
15261;SDS011;7733;51.554;13.590;2023-04-15T09:08:22;14.17;;;13.00;;
15261;SDS011;7733;51.554;13.590;2023-04-15T09:10:48;14.40;;;13.40;;
15261;SDS011;7733;51.554;13.590;2023-04-15T09:13:14;13.73;;;12.73;;
15261;SDS011;7733;51.554;13.590;2023-04-15T09:15:40;14.23;;;13.23;;
15261;SDS011;7733;51.554;13.590;2023-04-15T09:18:05;14.17;;;13.07;;
15261;SDS011;7733;51.554;13.590;2023-04-15T09:20:37;13.73;;;12.73;;
15261;SDS011;7733;51.554;13.590;2023-04-15T09:23:12;13.63;;;12.43;;
15261;SDS011;7733;51.554;13.590;2023-04-15T09:25:39;14.73;;;13.53;;
15261;SDS011;7733;51.554;13.590;2023-04-15T09:28:07;14.50;;;13.23;;
15261;SDS011;7733;51.554;13.590;2023-04-15T09:30:33;14.40;;;13.20;;
15261;SDS011;7733;51.554;13.590;2023-04-15T09:33:00;14.90;;;13.60;;
15261;SDS011;7733;51.554;13.590;2023-04-15T09:35:28;15.03;;;13.93;;
15261;SDS011;7733;51.554;13.590;2023-04-15T09:38:01;17.10;;;15.60;;
15261;SDS011;7733;51.554;13.590;2023-04-15T09:40:37;16.80;;;15.20;;
15261;SDS011;7733;51.554;13.590;2023-04-15T09:43:06;20.43;;;18.60;;
15261;SDS011;7733;51.554;13.590;2023-04-15T09:45:36;13.53;;;12.43;;
15261;SDS011;7733;51.554;13.590;2023-04-15T09:48:15;7.43;;;6.83;;
15261;SDS011;7733;51.554;13.590;2023-04-15T09:50:58;5.47;;;5.17;;
15261;SDS011;7733;51.554;13.590;2023-04-15T09:53:25;5.30;;;5.00;;
15261;SDS011;7733;51.554;13.590;2023-04-15T09:55:53;4.07;;;3.87;;
15261;SDS011;7733;51.554;13.590;2023-04-15T09:58:31;3.53;;;3.40;;
15261;SDS011;7733;51.554;13.590;2023-04-15T10:01:01;3.00;;;2.90;;
15261;SDS011;7733;51.554;13.590;2023-04-15T10:03:29;2.60;;;2.50;;
15261;SDS011;7733;51.554;13.590;2023-04-15T10:05:58;3.40;;;3.20;;
15261;SDS011;7733;51.554;13.590;2023-04-15T10:08:30;3.40;;;3.20;;
15261;SDS011;7733;51.554;13.590;2023-04-15T10:10:59;4.10;;;3.90;;
15261;SDS011;7733;51.554;13.590;2023-04-15T10:13:28;3.20;;;3.00;;
15261;SDS011;7733;51.554;13.590;2023-04-15T10:16:10;3.00;;;2.90;;
15261;SDS011;7733;51.554;13.590;2023-04-15T10:18:41;4.87;;;4.57;;
15261;SDS011;7733;51.554;13.590;2023-04-15T10:21:15;3.87;;;3.67;;
15261;SDS011;7733;51.554;13.590;2023-04-15T10:23:45;4.30;;;4.00;;
15261;SDS011;7733;51.554;13.590;2023-04-15T10:26:12;3.57;;;3.40;;
15261;SDS011;7733;51.554;13.590;2023-04-15T10:28:41;3.03;;;2.93;;
15261;SDS011;7733;51.554;13.590;2023-04-15T10:31:12;3.10;;;3.00;;
15261;SDS011;7733;51.554;13.590;2023-04-15T10:33:39;3.70;;;3.60;;
15261;SDS011;7733;51.554;13.590;2023-04-15T10:36:07;3.47;;;3.37;;
15261;SDS011;7733;51.554;13.590;2023-04-15T10:44:05;3.53;;;3.33;;
15261;SDS011;7733;51.554;13.590;2023-04-15T10:46:40;3.40;;;3.30;;
15261;SDS011;7733;51.554;13.590;2023-04-15T10:49:16;3.53;;;3.43;;
15261;SDS011;7733;51.554;13.590;2023-04-15T10:51:50;3.60;;;3.40;;
15261;SDS011;7733;51.554;13.590;2023-04-15T10:56:51;4.10;;;4.00;;
15261;SDS011;7733;51.554;13.590;2023-04-15T10:59:30;4.10;;;3.90;;
15261;SDS011;7733;51.554;13.590;2023-04-15T11:02:39;5.57;;;5.07;;
15261;SDS011;7733;51.554;13.590;2023-04-15T11:08:17;7.23;;;6.43;;
15261;SDS011;7733;51.554;13.590;2023-04-15T11:15:36;3.50;;;3.40;;
15261;SDS011;7733;51.554;13.590;2023-04-15T11:23:34;3.20;;;3.10;;
15261;SDS011;7733;51.554;13.590;2023-04-15T11:26:08;5.83;;;5.43;;
15261;SDS011;7733;51.554;13.590;2023-04-15T11:28:39;4.17;;;3.97;;
15261;SDS011;7733;51.554;13.590;2023-04-15T11:33:38;4.67;;;4.37;;
15261;SDS011;7733;51.554;13.590;2023-04-15T11:36:28;3.80;;;3.60;;
15261;SDS011;7733;51.554;13.590;2023-04-15T11:38:56;4.07;;;3.87;;
15261;SDS011;7733;51.554;13.590;2023-04-15T11:41:23;4.73;;;4.33;;
15261;SDS011;7733;51.554;13.590;2023-04-15T11:43:49;5.20;;;4.80;;
15261;SDS011;7733;51.554;13.590;2023-04-15T11:46:16;4.13;;;3.93;;
15261;SDS011;7733;51.554;13.590;2023-04-15T11:48:43;3.83;;;3.63;;
15261;SDS011;7733;51.554;13.590;2023-04-15T11:51:11;2.97;;;2.87;;
15261;SDS011;7733;51.554;13.590;2023-04-15T11:53:48;3.60;;;3.40;;
15261;SDS011;7733;51.554;13.590;2023-04-15T11:56:25;2.43;;;2.33;;
15261;SDS011;7733;51.554;13.590;2023-04-15T11:58:55;2.30;;;2.30;;
15261;SDS011;7733;51.554;13.590;2023-04-15T12:01:36;2.57;;;2.50;;
15261;SDS011;7733;51.554;13.590;2023-04-15T12:04:11;2.33;;;2.23;;
15261;SDS011;7733;51.554;13.590;2023-04-15T12:06:45;3.07;;;2.87;;
15261;SDS011;7733;51.554;13.590;2023-04-15T12:09:11;2.93;;;2.70;;
15261;SDS011;7733;51.554;13.590;2023-04-15T12:11:43;2.70;;;2.50;;
15261;SDS011;7733;51.554;13.590;2023-04-15T12:17:04;2.00;;;1.90;;
15261;SDS011;7733;51.554;13.590;2023-04-15T12:19:34;4.03;;;3.67;;
15261;SDS011;7733;51.554;13.590;2023-04-15T12:22:07;1.70;;;1.70;;
15261;SDS011;7733;51.554;13.590;2023-04-15T12:24:39;2.30;;;2.20;;
15261;SDS011;7733;51.554;13.590;2023-04-15T12:27:09;3.07;;;2.77;;
15261;SDS011;7733;51.554;13.590;2023-04-15T12:29:37;2.63;;;2.53;;
15261;SDS011;7733;51.554;13.590;2023-04-15T12:32:12;2.90;;;2.80;;
15261;SDS011;7733;51.554;13.590;2023-04-15T12:34:41;3.60;;;3.50;;
15261;SDS011;7733;51.554;13.590;2023-04-15T12:37:18;2.97;;;2.80;;
15261;SDS011;7733;51.554;13.590;2023-04-15T12:39:45;3.30;;;3.10;;
15261;SDS011;7733;51.554;13.590;2023-04-15T12:42:13;3.57;;;3.37;;
15261;SDS011;7733;51.554;13.590;2023-04-15T12:44:41;3.13;;;3.03;;
15261;SDS011;7733;51.554;13.590;2023-04-15T12:47:07;4.30;;;4.00;;
15261;SDS011;7733;51.554;13.590;2023-04-15T12:49:34;3.27;;;3.17;;
15261;SDS011;7733;51.554;13.590;2023-04-15T12:52:01;2.90;;;2.80;;
15261;SDS011;7733;51.554;13.590;2023-04-15T12:54:31;2.40;;;2.40;;
15261;SDS011;7733;51.554;13.590;2023-04-15T12:56:57;2.90;;;2.80;;
15261;SDS011;7733;51.554;13.590;2023-04-15T12:59:23;3.43;;;3.27;;
15261;SDS011;7733;51.554;13.590;2023-04-15T13:01:50;16.07;;;14.47;;
15261;SDS011;7733;51.554;13.590;2023-04-15T13:04:17;3.90;;;3.70;;
15261;SDS011;7733;51.554;13.590;2023-04-15T13:06:45;3.20;;;3.10;;
15261;SDS011;7733;51.554;13.590;2023-04-15T13:09:10;2.80;;;2.70;;
15261;SDS011;7733;51.554;13.590;2023-04-15T13:11:36;2.77;;;2.67;;
15261;SDS011;7733;51.554;13.590;2023-04-15T13:14:03;2.70;;;2.60;;
15261;SDS011;7733;51.554;13.590;2023-04-15T13:16:32;2.50;;;2.40;;
15261;SDS011;7733;51.554;13.590;2023-04-15T13:18:59;3.40;;;3.20;;
15261;SDS011;7733;51.554;13.590;2023-04-15T13:21:26;3.23;;;3.03;;
15261;SDS011;7733;51.554;13.590;2023-04-15T13:23:52;4.33;;;4.03;;
15261;SDS011;7733;51.554;13.590;2023-04-15T13:26:19;2.73;;;2.63;;
15261;SDS011;7733;51.554;13.590;2023-04-15T13:28:45;3.23;;;3.03;;
15261;SDS011;7733;51.554;13.590;2023-04-15T13:31:12;2.70;;;2.60;;
15261;SDS011;7733;51.554;13.590;2023-04-15T13:33:38;3.03;;;2.93;;
15261;SDS011;7733;51.554;13.590;2023-04-15T13:36:03;2.70;;;2.60;;
15261;SDS011;7733;51.554;13.590;2023-04-15T13:38:30;2.90;;;2.70;;
15261;SDS011;7733;51.554;13.590;2023-04-15T13:40:55;3.73;;;3.53;;
15261;SDS011;7733;51.554;13.590;2023-04-15T13:43:22;5.57;;;5.20;;
15261;SDS011;7733;51.554;13.590;2023-04-15T13:45:48;4.67;;;4.37;;
15261;SDS011;7733;51.554;13.590;2023-04-15T13:48:14;4.50;;;4.20;;
15261;SDS011;7733;51.554;13.590;2023-04-15T13:50:40;3.77;;;3.60;;
15261;SDS011;7733;51.554;13.590;2023-04-15T13:53:09;3.63;;;3.53;;
15261;SDS011;7733;51.554;13.590;2023-04-15T13:55:38;4.83;;;4.27;;
15261;SDS011;7733;51.554;13.590;2023-04-15T13:58:10;4.40;;;4.10;;
15261;SDS011;7733;51.554;13.590;2023-04-15T14:00:35;3.63;;;3.53;;
15261;SDS011;7733;51.554;13.590;2023-04-15T14:03:02;4.00;;;3.90;;
15261;SDS011;7733;51.554;13.590;2023-04-15T14:05:28;4.57;;;4.37;;
15261;SDS011;7733;51.554;13.590;2023-04-15T14:07:54;5.20;;;4.90;;
15261;SDS011;7733;51.554;13.590;2023-04-15T14:10:19;4.03;;;3.83;;
15261;SDS011;7733;51.554;13.590;2023-04-15T14:12:45;3.53;;;3.33;;
15261;SDS011;7733;51.554;13.590;2023-04-15T14:15:11;3.80;;;3.60;;
15261;SDS011;7733;51.554;13.590;2023-04-15T14:17:37;4.40;;;4.20;;
15261;SDS011;7733;51.554;13.590;2023-04-15T14:20:03;4.00;;;3.83;;
15261;SDS011;7733;51.554;13.590;2023-04-15T14:22:32;3.83;;;3.67;;
15261;SDS011;7733;51.554;13.590;2023-04-15T14:24:58;5.40;;;5.13;;
15261;SDS011;7733;51.554;13.590;2023-04-15T14:27:24;3.90;;;3.70;;
15261;SDS011;7733;51.554;13.590;2023-04-15T14:29:51;4.00;;;3.80;;
15261;SDS011;7733;51.554;13.590;2023-04-15T14:32:18;5.00;;;4.70;;
15261;SDS011;7733;51.554;13.590;2023-04-15T14:34:44;7.30;;;6.80;;
15261;SDS011;7733;51.554;13.590;2023-04-15T14:37:09;5.70;;;5.40;;
15261;SDS011;7733;51.554;13.590;2023-04-15T14:39:35;4.70;;;4.40;;
15261;SDS011;7733;51.554;13.590;2023-04-15T14:42:01;6.03;;;5.63;;
15261;SDS011;7733;51.554;13.590;2023-04-15T14:44:27;4.87;;;4.60;;
15261;SDS011;7733;51.554;13.590;2023-04-15T14:46:53;5.60;;;5.10;;
15261;SDS011;7733;51.554;13.590;2023-04-15T14:49:19;4.77;;;4.50;;
15261;SDS011;7733;51.554;13.590;2023-04-15T14:51:45;4.67;;;4.37;;
15261;SDS011;7733;51.554;13.590;2023-04-15T14:54:11;13.33;;;12.23;;
15261;SDS011;7733;51.554;13.590;2023-04-15T14:56:37;5.43;;;5.03;;
15261;SDS011;7733;51.554;13.590;2023-04-15T14:59:02;7.80;;;7.30;;
15261;SDS011;7733;51.554;13.590;2023-04-15T15:01:28;5.10;;;4.80;;